sensor_id;sensor_type;location;lat;lon;timestamp;pressure;altitude;pressure_sealevel;temperature;humidity
39789;BME280;25478;42.626;23.320;2022-12-18T00:00:43;93770.69;;;6.34;100.00
39789;BME280;25478;42.626;23.320;2022-12-18T00:03:09;93783.03;;;6.33;100.00
39789;BME280;25478;42.626;23.320;2022-12-18T00:05:35;93776.25;;;6.32;100.00
39789;BME280;25478;42.626;23.320;2022-12-18T00:08:01;93789.56;;;6.27;100.00
39789;BME280;25478;42.626;23.320;2022-12-18T00:10:28;93786.84;;;6.24;100.00
39789;BME280;25478;42.626;23.320;2022-12-18T00:12:54;93798.28;;;6.19;100.00
39789;BME280;25478;42.626;23.320;2022-12-18T00:15:19;93780.63;;;6.04;100.00
39789;BME280;25478;42.626;23.320;2022-12-18T00:17:46;93798.50;;;6.02;100.00
39789;BME280;25478;42.626;23.320;2022-12-18T00:20:11;93788.31;;;5.88;100.00
39789;BME280;25478;42.626;23.320;2022-12-18T00:22:37;93806.00;;;5.91;100.00
39789;BME280;25478;42.626;23.320;2022-12-18T00:25:03;93781.44;;;5.71;100.00
39789;BME280;25478;42.626;23.320;2022-12-18T00:27:29;93813.69;;;5.87;100.00
39789;BME280;25478;42.626;23.320;2022-12-18T00:29:54;93820.00;;;5.86;100.00
39789;BME280;25478;42.626;23.320;2022-12-18T00:32:20;93809.31;;;5.79;100.00
39789;BME280;25478;42.626;23.320;2022-12-18T00:34:45;93814.25;;;5.81;100.00
39789;BME280;25478;42.626;23.320;2022-12-18T00:37:11;93816.41;;;5.79;100.00
39789;BME280;25478;42.626;23.320;2022-12-18T00:39:36;93808.81;;;5.74;100.00
39789;BME280;25478;42.626;23.320;2022-12-18T00:42:02;93813.56;;;5.72;100.00
39789;BME280;25478;42.626;23.320;2022-12-18T00:44:47;93823.16;;;5.68;100.00
39789;BME280;25478;42.626;23.320;2022-12-18T00:47:12;93823.81;;;5.64;100.00
39789;BME280;25478;42.626;23.320;2022-12-18T00:49:38;93820.81;;;5.54;100.00
39789;BME280;25478;42.626;23.320;2022-12-18T00:52:03;93818.22;;;5.54;100.00
39789;BME280;25478;42.626;23.320;2022-12-18T00:54:29;93827.56;;;5.55;100.00
39789;BME280;25478;42.626;23.320;2022-12-18T00:56:54;93810.22;;;5.38;100.00
39789;BME280;25478;42.626;23.320;2022-12-18T00:59:20;93830.72;;;5.48;100.00
39789;BME280;25478;42.626;23.320;2022-12-18T01:01:47;93835.56;;;5.37;100.00
39789;BME280;25478;42.626;23.320;2022-12-18T01:04:13;93826.88;;;5.33;100.00
39789;BME280;25478;42.626;23.320;2022-12-18T01:06:38;93833.03;;;5.29;100.00
39789;BME280;25478;42.626;23.320;2022-12-18T01:09:04;93842.63;;;5.25;100.00
39789;BME280;25478;42.626;23.320;2022-12-18T01:11:29;93844.16;;;5.26;100.00
39789;BME280;25478;42.626;23.320;2022-12-18T01:13:55;93842.81;;;5.20;100.00
39789;BME280;25478;42.626;23.320;2022-12-18T01:16:22;93850.34;;;5.21;100.00
39789;BME280;25478;42.626;23.320;2022-12-18T01:18:51;93847.47;;;5.14;100.00
39789;BME280;25478;42.626;23.320;2022-12-18T01:21:18;93854.63;;;5.05;100.00
39789;BME280;25478;42.626;23.320;2022-12-18T01:23:44;93848.25;;;4.94;100.00
39789;BME280;25478;42.626;23.320;2022-12-18T01:26:14;93849.81;;;4.86;100.00
39789;BME280;25478;42.626;23.320;2022-12-18T01:28:41;93863.56;;;4.74;100.00
39789;BME280;25478;42.626;23.320;2022-12-18T01:33:46;93824.84;;;4.35;100.00
39789;BME280;25478;42.626;23.320;2022-12-18T01:38:44;93861.91;;;4.49;100.00
39789;BME280;25478;42.626;23.320;2022-12-18T01:41:11;93870.47;;;4.49;100.00
39789;BME280;25478;42.626;23.320;2022-12-18T01:43:46;93872.31;;;4.49;100.00
39789;BME280;25478;42.626;23.320;2022-12-18T01:46:12;93869.06;;;4.52;100.00
39789;BME280;25478;42.626;23.320;2022-12-18T01:48:38;93879.66;;;4.56;100.00
39789;BME280;25478;42.626;23.320;2022-12-18T01:51:06;93871.03;;;4.64;100.00
39789;BME280;25478;42.626;23.320;2022-12-18T01:53:33;93873.63;;;4.64;100.00
39789;BME280;25478;42.626;23.320;2022-12-18T01:55:59;93882.06;;;4.61;100.00
39789;BME280;25478;42.626;23.320;2022-12-18T01:58:56;93880.41;;;4.56;100.00
39789;BME280;25478;42.626;23.320;2022-12-18T02:01:24;93889.00;;;4.57;100.00
39789;BME280;25478;42.626;23.320;2022-12-18T02:03:50;93891.59;;;4.57;100.00
39789;BME280;25478;42.626;23.320;2022-12-18T02:06:30;93880.16;;;4.49;100.00
39789;BME280;25478;42.626;23.320;2022-12-18T02:09:10;93887.25;;;4.40;100.00
39789;BME280;25478;42.626;23.320;2022-12-18T02:14:38;93897.09;;;4.34;100.00
39789;BME280;25478;42.626;23.320;2022-12-18T02:17:21;93899.69;;;4.34;100.00
39789;BME280;25478;42.626;23.320;2022-12-18T02:20:04;93901.41;;;4.30;100.00
39789;BME280;25478;42.626;23.320;2022-12-18T02:27:41;93901.84;;;4.32;100.00
39789;BME280;25478;42.626;23.320;2022-12-18T02:30:10;93902.13;;;4.39;100.00
39789;BME280;25478;42.626;23.320;2022-12-18T02:32:43;93905.19;;;4.41;100.00
39789;BME280;25478;42.626;23.320;2022-12-18T02:35:16;93901.50;;;4.42;100.00
39789;BME280;25478;42.626;23.320;2022-12-18T02:37:44;93888.97;;;4.27;100.00
39789;BME280;25478;42.626;23.320;2022-12-18T02:40:11;93906.91;;;4.37;100.00
39789;BME280;25478;42.626;23.320;2022-12-18T02:42:37;93906.16;;;4.28;100.00
39789;BME280;25478;42.626;23.320;2022-12-18T02:45:06;93912.31;;;4.23;100.00
39789;BME280;25478;42.626;23.320;2022-12-18T02:47:37;93914.16;;;4.23;100.00
39789;BME280;25478;42.626;23.320;2022-12-18T02:53:20;93908.66;;;4.16;100.00
39789;BME280;25478;42.626;23.320;2022-12-18T02:56:09;93908.66;;;4.16;100.00
39789;BME280;25478;42.626;23.320;2022-12-18T03:01:38;93908.69;;;4.07;100.00
39789;BME280;25478;42.626;23.320;2022-12-18T03:04:12;93898.16;;;3.86;100.00
39789;BME280;25478;42.626;23.320;2022-12-18T03:06:43;93918.53;;;3.93;100.00
39789;BME280;25478;42.626;23.320;2022-12-18T03:09:24;93926.03;;;3.94;100.00
39789;BME280;25478;42.626;23.320;2022-12-18T03:11:56;93922.84;;;3.89;100.00
39789;BME280;25478;42.626;23.320;2022-12-18T03:14:45;93928.09;;;3.80;100.00
39789;BME280;25478;42.626;23.320;2022-12-18T03:17:17;93925.47;;;3.80;100.00
39789;BME280;25478;42.626;23.320;2022-12-18T03:19:45;93926.38;;;3.76;100.00
39789;BME280;25478;42.626;23.320;2022-12-18T03:22:13;93928.09;;;3.72;100.00
39789;BME280;25478;42.626;23.320;2022-12-18T03:24:45;93923.81;;;3.67;100.00
39789;BME280;25478;42.626;23.320;2022-12-18T03:27:15;93927.94;;;3.68;100.00
39789;BME280;25478;42.626;23.320;2022-12-18T03:29:52;93929.63;;;3.73;100.00
39789;BME280;25478;42.626;23.320;2022-12-18T03:32:30;93936.81;;;3.67;100.00
39789;BME280;25478;42.626;23.320;2022-12-18T03:35:02;93939.75;;;3.65;100.00
39789;BME280;25478;42.626;23.320;2022-12-18T03:37:33;93940.63;;;3.70;100.00
39789;BME280;25478;42.626;23.320;2022-12-18T03:39:59;93946.16;;;3.77;100.00
39789;BME280;25478;42.626;23.320;2022-12-18T03:45:22;93959.34;;;3.80;100.00
39789;BME280;25478;42.626;23.320;2022-12-18T03:50:22;93955.97;;;3.80;100.00
39789;BME280;25478;42.626;23.320;2022-12-18T03:55:21;93962.09;;;3.66;100.00
39789;BME280;25478;42.626;23.320;2022-12-18T03:57:54;93968.84;;;3.67;100.00
39789;BME280;25478;42.626;23.320;2022-12-18T04:00:21;93964.69;;;3.66;100.00
39789;BME280;25478;42.626;23.320;2022-12-18T04:02:57;93962.53;;;3.68;100.00
39789;BME280;25478;42.626;23.320;2022-12-18T04:05:33;93967.16;;;3.63;100.00
39789;BME280;25478;42.626;23.320;2022-12-18T04:08:01;93976.50;;;3.64;100.00
39789;BME280;25478;42.626;23.320;2022-12-18T04:10:27;93972.66;;;3.61;100.00
39789;BME280;25478;42.626;23.320;2022-12-18T04:12:56;93962.41;;;3.56;100.00
39789;BME280;25478;42.626;23.320;2022-12-18T04:15:23;93986.47;;;3.62;100.00
39789;BME280;25478;42.626;23.320;2022-12-18T04:17:49;93990.13;;;3.61;100.00
39789;BME280;25478;42.626;23.320;2022-12-18T04:20:18;93984.47;;;3.50;100.00
39789;BME280;25478;42.626;23.320;2022-12-18T04:22:45;93999.19;;;3.55;100.00
39789;BME280;25478;42.626;23.320;2022-12-18T04:25:10;93993.97;;;3.46;100.00
39789;BME280;25478;42.626;23.320;2022-12-18T04:27:40;94008.22;;;3.49;100.00
39789;BME280;25478;42.626;23.320;2022-12-18T04:30:07;94004.53;;;3.50;100.00
39789;BME280;25478;42.626;23.320;2022-12-18T04:32:34;94004.97;;;3.43;100.00
39789;BME280;25478;42.626;23.320;2022-12-18T04:35:00;94012.19;;;3.46;100.00
39789;BME280;25478;42.626;23.320;2022-12-18T04:37:25;94005.59;;;3.40;100.00
39789;BME280;25478;42.626;23.320;2022-12-18T04:39:51;94016.00;;;3.40;100.00
39789;BME280;25478;42.626;23.320;2022-12-18T04:42:24;94020.59;;;3.43;100.00
39789;BME280;25478;42.626;23.320;2022-12-18T04:44:49;94024.44;;;3.46;100.00
39789;BME280;25478;42.626;23.320;2022-12-18T04:47:15;94029.66;;;3.46;100.00
39789;BME280;25478;42.626;23.320;2022-12-18T04:49:40;94010.19;;;3.34;100.00
39789;BME280;25478;42.626;23.320;2022-12-18T04:52:06;94025.34;;;3.41;99.59
39789;BME280;25478;42.626;23.320;2022-12-18T04:54:31;94026.28;;;3.36;99.94
39789;BME280;25478;42.626;23.320;2022-12-18T04:56:57;94034.38;;;3.35;100.00
39789;BME280;25478;42.626;23.320;2022-12-18T04:59:22;94038.97;;;3.38;99.34
39789;BME280;25478;42.626;23.320;2022-12-18T05:01:48;94040.19;;;3.32;98.62
39789;BME280;25478;42.626;23.320;2022-12-18T05:04:13;94039.44;;;3.31;98.78
39789;BME280;25478;42.626;23.320;2022-12-18T05:06:39;94048.13;;;3.27;98.54
39789;BME280;25478;42.626;23.320;2022-12-18T05:09:04;94051.34;;;3.24;98.11
39789;BME280;25478;42.626;23.320;2022-12-18T05:11:30;94056.88;;;3.22;98.86
39789;BME280;25478;42.626;23.320;2022-12-18T05:13:55;94055.34;;;3.21;98.60
39789;BME280;25478;42.626;23.320;2022-12-18T05:16:20;94059.00;;;3.20;98.53
39789;BME280;25478;42.626;23.320;2022-12-18T05:18:46;94056.69;;;3.19;98.49
39789;BME280;25478;42.626;23.320;2022-12-18T05:21:11;94061.59;;;3.20;98.50
39789;BME280;25478;42.626;23.320;2022-12-18T05:23:37;94077.50;;;3.19;98.61
39789;BME280;25478;42.626;23.320;2022-12-18T05:26:05;94075.38;;;3.21;98.05
39789;BME280;25478;42.626;23.320;2022-12-18T05:28:32;94077.81;;;3.26;97.72
39789;BME280;25478;42.626;23.320;2022-12-18T05:31:00;94088.09;;;3.22;98.08
39789;BME280;25478;42.626;23.320;2022-12-18T05:33:30;94094.19;;;3.26;98.23
39789;BME280;25478;42.626;23.320;2022-12-18T05:36:00;94096.81;;;3.35;97.97
39789;BME280;25478;42.626;23.320;2022-12-18T05:38:29;94098.53;;;3.39;97.98
39789;BME280;25478;42.626;23.320;2022-12-18T05:40:55;94101.91;;;3.40;97.37
39789;BME280;25478;42.626;23.320;2022-12-18T05:43:24;94105.72;;;3.34;97.21
39789;BME280;25478;42.626;23.320;2022-12-18T05:45:51;94106.78;;;3.33;97.02
39789;BME280;25478;42.626;23.320;2022-12-18T05:48:17;94080.88;;;3.19;96.80
39789;BME280;25478;42.626;23.320;2022-12-18T05:50:44;94085.31;;;3.19;96.53
39789;BME280;25478;42.626;23.320;2022-12-18T05:53:11;94104.91;;;3.25;96.38
39789;BME280;25478;42.626;23.320;2022-12-18T05:55:38;94093.25;;;3.14;96.52
39789;BME280;25478;42.626;23.320;2022-12-18T05:58:05;94115.50;;;3.20;96.64
39789;BME280;25478;42.626;23.320;2022-12-18T06:00:33;94119.91;;;3.19;96.80
39789;BME280;25478;42.626;23.320;2022-12-18T06:03:00;94119.88;;;3.10;96.93
39789;BME280;25478;42.626;23.320;2022-12-18T06:05:26;94116.63;;;2.96;97.21
39789;BME280;25478;42.626;23.320;2022-12-18T06:07:51;94120.28;;;2.95;97.70
39789;BME280;25478;42.626;23.320;2022-12-18T06:10:17;94103.69;;;2.82;97.66
39789;BME280;25478;42.626;23.320;2022-12-18T06:12:43;94134.22;;;2.99;98.06
39789;BME280;25478;42.626;23.320;2022-12-18T06:15:09;94131.00;;;3.02;98.31
39789;BME280;25478;42.626;23.320;2022-12-18T06:17:35;94131.66;;;3.08;97.63
39789;BME280;25478;42.626;23.320;2022-12-18T06:20:00;94134.84;;;3.05;97.80
39789;BME280;25478;42.626;23.320;2022-12-18T06:22:26;94133.34;;;3.04;97.26
39789;BME280;25478;42.626;23.320;2022-12-18T06:24:52;94139.88;;;3.01;97.61
39789;BME280;25478;42.626;23.320;2022-12-18T06:27:18;94139.00;;;3.06;97.11
39789;BME280;25478;42.626;23.320;2022-12-18T06:29:44;94138.22;;;3.05;97.35
39789;BME280;25478;42.626;23.320;2022-12-18T06:32:09;94140.69;;;3.10;97.18
39789;BME280;25478;42.626;23.320;2022-12-18T06:34:37;94137.19;;;3.15;96.44
39789;BME280;25478;42.626;23.320;2022-12-18T06:37:03;94141.78;;;3.18;95.22
39789;BME280;25478;42.626;23.320;2022-12-18T06:39:28;94149.59;;;3.18;95.26
39789;BME280;25478;42.626;23.320;2022-12-18T06:41:54;94143.19;;;3.24;94.73
39789;BME280;25478;42.626;23.320;2022-12-18T06:44:19;94155.59;;;3.27;93.20
39789;BME280;25478;42.626;23.320;2022-12-18T06:46:45;94161.56;;;3.28;94.06
39789;BME280;25478;42.626;23.320;2022-12-18T06:49:11;94163.56;;;3.31;94.07
39789;BME280;25478;42.626;23.320;2022-12-18T06:51:36;94164.97;;;3.37;93.80
39789;BME280;25478;42.626;23.320;2022-12-18T06:54:02;94169.28;;;3.42;93.80
39789;BME280;25478;42.626;23.320;2022-12-18T06:56:28;94175.56;;;3.49;93.38
39789;BME280;25478;42.626;23.320;2022-12-18T06:58:53;94164.84;;;3.51;91.73
39789;BME280;25478;42.626;23.320;2022-12-18T07:01:20;94177.09;;;3.50;91.03
39789;BME280;25478;42.626;23.320;2022-12-18T07:03:46;94181.72;;;3.53;90.64
39789;BME280;25478;42.626;23.320;2022-12-18T07:06:17;94184.34;;;3.53;90.42
39789;BME280;25478;42.626;23.320;2022-12-18T07:08:44;94183.53;;;3.53;91.08
39789;BME280;25478;42.626;23.320;2022-12-18T07:11:10;94181.88;;;3.57;90.29
39789;BME280;25478;42.626;23.320;2022-12-18T07:13:35;94182.97;;;3.56;89.65
39789;BME280;25478;42.626;23.320;2022-12-18T07:16:06;94185.25;;;3.57;89.17
39789;BME280;25478;42.626;23.320;2022-12-18T07:18:32;94182.19;;;3.55;88.96
39789;BME280;25478;42.626;23.320;2022-12-18T07:20:57;94183.72;;;3.56;88.71
39789;BME280;25478;42.626;23.320;2022-12-18T07:23:23;94194.91;;;3.57;88.13
39789;BME280;25478;42.626;23.320;2022-12-18T07:25:48;94187.84;;;3.57;87.90
39789;BME280;25478;42.626;23.320;2022-12-18T07:28:14;94188.75;;;3.53;87.83
39789;BME280;25478;42.626;23.320;2022-12-18T07:30:40;94196.41;;;3.49;86.99
39789;BME280;25478;42.626;23.320;2022-12-18T07:33:05;94199.13;;;3.44;87.33
39789;BME280;25478;42.626;23.320;2022-12-18T07:35:32;94203.88;;;3.42;87.54
39789;BME280;25478;42.626;23.320;2022-12-18T07:38:01;94202.66;;;3.39;87.34
39789;BME280;25478;42.626;23.320;2022-12-18T07:40:26;94206.03;;;3.40;87.17
39789;BME280;25478;42.626;23.320;2022-12-18T07:42:52;94207.09;;;3.39;87.71
39789;BME280;25478;42.626;23.320;2022-12-18T07:45:17;94209.69;;;3.39;87.09
39789;BME280;25478;42.626;23.320;2022-12-18T07:47:42;94206.63;;;3.37;87.68
39789;BME280;25478;42.626;23.320;2022-12-18T07:50:08;94217.66;;;3.43;87.39
39789;BME280;25478;42.626;23.320;2022-12-18T07:52:34;94215.25;;;3.46;87.36
39789;BME280;25478;42.626;23.320;2022-12-18T07:54:59;94220.44;;;3.46;88.24
39789;BME280;25478;42.626;23.320;2022-12-18T07:57:25;94218.75;;;3.50;87.76
39789;BME280;25478;42.626;23.320;2022-12-18T07:59:50;94223.66;;;3.52;86.18
39789;BME280;25478;42.626;23.320;2022-12-18T08:02:16;94225.03;;;3.49;86.29
39789;BME280;25478;42.626;23.320;2022-12-18T08:04:41;94223.19;;;3.50;86.42
39789;BME280;25478;42.626;23.320;2022-12-18T08:07:07;94233.81;;;3.53;86.32
39789;BME280;25478;42.626;23.320;2022-12-18T08:09:32;94234.38;;;3.50;85.96
39789;BME280;25478;42.626;23.320;2022-12-18T08:11:58;94241.44;;;3.50;86.35
39789;BME280;25478;42.626;23.320;2022-12-18T08:14:24;94245.84;;;3.41;86.74
39789;BME280;25478;42.626;23.320;2022-12-18T08:16:49;94250.13;;;3.36;87.02
39789;BME280;25478;42.626;23.320;2022-12-18T08:19:15;94260.19;;;3.29;87.58
39789;BME280;25478;42.626;23.320;2022-12-18T08:21:40;94259.63;;;3.19;88.75
39789;BME280;25478;42.626;23.320;2022-12-18T08:24:06;94274.38;;;3.23;89.00
39789;BME280;25478;42.626;23.320;2022-12-18T08:26:32;94266.25;;;3.25;88.41
39789;BME280;25478;42.626;23.320;2022-12-18T08:28:59;94269.00;;;3.20;89.14
39789;BME280;25478;42.626;23.320;2022-12-18T08:31:26;94277.69;;;3.15;89.13
39789;BME280;25478;42.626;23.320;2022-12-18T08:33:53;94274.03;;;3.16;90.02
39789;BME280;25478;42.626;23.320;2022-12-18T08:36:19;94274.69;;;3.22;89.38
39789;BME280;25478;42.626;23.320;2022-12-18T08:38:46;94271.00;;;3.23;89.09
39789;BME280;25478;42.626;23.320;2022-12-18T08:41:13;94285.72;;;3.27;88.95
39789;BME280;25478;42.626;23.320;2022-12-18T08:43:39;94256.66;;;3.03;89.39
39789;BME280;25478;42.626;23.320;2022-12-18T08:46:24;94290.66;;;3.06;90.10
39789;BME280;25478;42.626;23.320;2022-12-18T08:48:51;94293.16;;;3.12;90.48
39789;BME280;25478;42.626;23.320;2022-12-18T08:51:17;94285.66;;;3.19;90.55
39789;BME280;25478;42.626;23.320;2022-12-18T08:53:43;94282.34;;;3.27;89.97
39789;BME280;25478;42.626;23.320;2022-12-18T08:56:10;94291.88;;;3.31;89.49
39789;BME280;25478;42.626;23.320;2022-12-18T08:58:36;94292.81;;;3.35;89.51
39789;BME280;25478;42.626;23.320;2022-12-18T09:01:03;94291.00;;;3.45;89.95
39789;BME280;25478;42.626;23.320;2022-12-18T09:03:29;94287.69;;;3.53;89.93
39789;BME280;25478;42.626;23.320;2022-12-18T09:05:54;94280.16;;;3.51;89.73
39789;BME280;25478;42.626;23.320;2022-12-18T09:08:20;94283.44;;;3.57;89.31
39789;BME280;25478;42.626;23.320;2022-12-18T09:10:48;94262.94;;;3.33;89.39
39789;BME280;25478;42.626;23.320;2022-12-18T09:13:15;94279.22;;;3.38;89.89
39789;BME280;25478;42.626;23.320;2022-12-18T09:15:42;94287.19;;;3.42;90.05
39789;BME280;25478;42.626;23.320;2022-12-18T09:18:09;94279.97;;;3.39;90.24
39789;BME280;25478;42.626;23.320;2022-12-18T09:20:36;94284.22;;;3.35;90.30
39789;BME280;25478;42.626;23.320;2022-12-18T09:23:02;94281.16;;;3.33;90.13
39789;BME280;25478;42.626;23.320;2022-12-18T09:25:29;94276.88;;;3.28;90.62
39789;BME280;25478;42.626;23.320;2022-12-18T09:28:12;94281.41;;;3.23;90.99
39789;BME280;25478;42.626;23.320;2022-12-18T09:30:39;94283.88;;;3.28;90.35
39789;BME280;25478;42.626;23.320;2022-12-18T09:33:05;94278.34;;;3.21;90.64
39789;BME280;25478;42.626;23.320;2022-12-18T09:35:30;94284.13;;;3.18;90.67
39789;BME280;25478;42.626;23.320;2022-12-18T09:37:56;94282.28;;;3.18;90.67
39789;BME280;25478;42.626;23.320;2022-12-18T09:40:24;94288.63;;;3.26;91.43
39789;BME280;25478;42.626;23.320;2022-12-18T09:43:03;94292.03;;;3.35;90.82
39789;BME280;25478;42.626;23.320;2022-12-18T09:45:38;94269.47;;;3.22;91.19
39789;BME280;25478;42.626;23.320;2022-12-18T09:48:10;94279.47;;;3.28;90.79
39789;BME280;25478;42.626;23.320;2022-12-18T09:50:41;94290.53;;;3.43;91.32
39789;BME280;25478;42.626;23.320;2022-12-18T09:53:17;94287.53;;;3.49;90.05
39789;BME280;25478;42.626;23.320;2022-12-18T09:55:47;94288.72;;;3.43;89.96
39789;BME280;25478;42.626;23.320;2022-12-18T10:01:21;94280.81;;;3.57;90.28
39789;BME280;25478;42.626;23.320;2022-12-18T10:03:48;94257.22;;;3.53;90.06
39789;BME280;25478;42.626;23.320;2022-12-18T10:06:19;94252.63;;;3.59;87.73
39789;BME280;25478;42.626;23.320;2022-12-18T10:08:51;94279.50;;;3.77;87.86
39789;BME280;25478;42.626;23.320;2022-12-18T10:14:30;94286.16;;;3.91;86.18
39789;BME280;25478;42.626;23.320;2022-12-18T10:22:22;94288.31;;;3.89;85.84
39789;BME280;25478;42.626;23.320;2022-12-18T10:25:27;94290.88;;;3.81;85.03
39789;BME280;25478;42.626;23.320;2022-12-18T10:27:55;94286.22;;;3.69;85.70
39789;BME280;25478;42.626;23.320;2022-12-18T10:30:23;94295.59;;;3.70;86.15
39789;BME280;25478;42.626;23.320;2022-12-18T10:32:49;94292.03;;;3.66;86.03
39789;BME280;25478;42.626;23.320;2022-12-18T10:35:19;94285.19;;;3.70;86.82
39789;BME280;25478;42.626;23.320;2022-12-18T10:40:27;94289.03;;;3.81;86.93
39789;BME280;25478;42.626;23.320;2022-12-18T10:43:12;94282.91;;;3.86;86.81
39789;BME280;25478;42.626;23.320;2022-12-18T10:45:39;94290.59;;;3.91;86.53
39789;BME280;25478;42.626;23.320;2022-12-18T10:48:17;94284.78;;;3.94;85.87
39789;BME280;25478;42.626;23.320;2022-12-18T10:50:47;94293.50;;;3.89;85.21
39789;BME280;25478;42.626;23.320;2022-12-18T10:53:19;94280.75;;;3.71;84.42
39789;BME280;25478;42.626;23.320;2022-12-18T10:55:46;94285.13;;;3.61;83.98
39789;BME280;25478;42.626;23.320;2022-12-18T11:00:50;94283.00;;;3.32;84.49
39789;BME280;25478;42.626;23.320;2022-12-18T11:03:32;94277.69;;;3.37;84.32
39789;BME280;25478;42.626;23.320;2022-12-18T11:06:13;94277.94;;;3.36;83.37
39789;BME280;25478;42.626;23.320;2022-12-18T11:08:41;94285.00;;;3.35;83.46
39789;BME280;25478;42.626;23.320;2022-12-18T11:11:18;94281.50;;;3.40;83.83
39789;BME280;25478;42.626;23.320;2022-12-18T11:16:19;94241.69;;;3.08;81.37
39789;BME280;25478;42.626;23.320;2022-12-18T11:18:45;94286.41;;;3.42;81.10
39789;BME280;25478;42.626;23.320;2022-12-18T11:21:12;94287.47;;;3.41;80.45
39789;BME280;25478;42.626;23.320;2022-12-18T11:23:49;94282.75;;;3.43;79.17
39789;BME280;25478;42.626;23.320;2022-12-18T11:26:15;94284.13;;;3.40;78.74
39789;BME280;25478;42.626;23.320;2022-12-18T11:28:47;94284.13;;;3.40;78.04
39789;BME280;25478;42.626;23.320;2022-12-18T11:31:26;94281.66;;;3.44;77.53
39789;BME280;25478;42.626;23.320;2022-12-18T11:34:15;94279.16;;;3.30;76.18
39789;BME280;25478;42.626;23.320;2022-12-18T11:36:45;94284.66;;;3.28;77.10
39789;BME280;25478;42.626;23.320;2022-12-18T11:39:22;94288.50;;;3.31;76.85
39789;BME280;25478;42.626;23.320;2022-12-18T11:42:08;94283.88;;;3.28;76.20
39789;BME280;25478;42.626;23.320;2022-12-18T11:44:42;94288.81;;;3.29;76.51
39789;BME280;25478;42.626;23.320;2022-12-18T11:49:49;94287.94;;;3.43;74.32
39789;BME280;25478;42.626;23.320;2022-12-18T11:52:28;94285.03;;;3.44;72.25
39789;BME280;25478;42.626;23.320;2022-12-18T11:55:01;94285.59;;;3.32;72.39
39789;BME280;25478;42.626;23.320;2022-12-18T11:57:49;94286.16;;;3.21;72.84
39789;BME280;25478;42.626;23.320;2022-12-18T12:00:19;94284.03;;;3.23;72.97
39789;BME280;25478;42.626;23.320;2022-12-18T12:08:18;94279.47;;;3.28;74.45
39789;BME280;25478;42.626;23.320;2022-12-18T12:13:42;94284.38;;;3.30;75.42
39789;BME280;25478;42.626;23.320;2022-12-18T12:16:18;94278.44;;;3.38;75.57
39789;BME280;25478;42.626;23.320;2022-12-18T12:20:07;94287.13;;;3.33;76.12
39789;BME280;25478;42.626;23.320;2022-12-18T12:27:40;94284.00;;;3.45;76.92
39789;BME280;25478;42.626;23.320;2022-12-18T12:30:48;94283.38;;;3.48;77.03
39789;BME280;25478;42.626;23.320;2022-12-18T12:36:07;94293.50;;;3.50;77.31
39789;BME280;25478;42.626;23.320;2022-12-18T12:38:58;94293.06;;;3.56;77.34
39789;BME280;25478;42.626;23.320;2022-12-18T12:41:31;94276.03;;;3.50;76.38
39789;BME280;25478;42.626;23.320;2022-12-18T12:44:24;94292.88;;;3.53;76.25
39789;BME280;25478;42.626;23.320;2022-12-18T12:46:52;94294.56;;;3.49;76.39
39789;BME280;25478;42.626;23.320;2022-12-18T12:49:22;94290.53;;;3.43;76.19
39789;BME280;25478;42.626;23.320;2022-12-18T12:52:07;94308.31;;;3.41;76.49
39789;BME280;25478;42.626;23.320;2022-12-18T12:54:36;94300.50;;;3.41;76.97
39789;BME280;25478;42.626;23.320;2022-12-18T13:02:28;94307.59;;;3.49;77.34
39789;BME280;25478;42.626;23.320;2022-12-18T13:05:04;94311.72;;;3.50;76.48
39789;BME280;25478;42.626;23.320;2022-12-18T13:07:36;94308.00;;;3.42;77.13
39789;BME280;25478;42.626;23.320;2022-12-18T13:15:25;94323.63;;;3.42;77.92
39789;BME280;25478;42.626;23.320;2022-12-18T13:20:35;94326.94;;;3.34;77.98
39789;BME280;25478;42.626;23.320;2022-12-18T13:28:20;94345.03;;;3.17;79.14
39789;BME280;25478;42.626;23.320;2022-12-18T13:40:58;94344.16;;;3.21;79.40
39789;BME280;25478;42.626;23.320;2022-12-18T13:43:51;94349.38;;;3.21;79.26
39789;BME280;25478;42.626;23.320;2022-12-18T13:51:50;94362.59;;;3.33;79.17
39789;BME280;25478;42.626;23.320;2022-12-18T13:54:35;94356.16;;;3.31;79.32
39789;BME280;25478;42.626;23.320;2022-12-18T13:57:01;94367.41;;;3.18;79.37
39789;BME280;25478;42.626;23.320;2022-12-18T13:59:39;94367.75;;;3.25;79.65
39789;BME280;25478;42.626;23.320;2022-12-18T14:02:13;94371.19;;;3.34;79.73
39789;BME280;25478;42.626;23.320;2022-12-18T14:04:39;94375.94;;;3.32;79.99
39789;BME280;25478;42.626;23.320;2022-12-18T14:07:13;94365.50;;;3.32;80.20
39789;BME280;25478;42.626;23.320;2022-12-18T14:09:42;94366.34;;;3.41;80.26
39789;BME280;25478;42.626;23.320;2022-12-18T14:12:27;94366.81;;;3.43;79.91
39789;BME280;25478;42.626;23.320;2022-12-18T14:15:32;94368.63;;;3.43;80.02
39789;BME280;25478;42.626;23.320;2022-12-18T14:21:00;94381.59;;;3.34;80.60
39789;BME280;25478;42.626;23.320;2022-12-18T14:25:58;94376.47;;;3.20;80.36
39789;BME280;25478;42.626;23.320;2022-12-18T14:28:24;94372.84;;;3.07;80.43
39789;BME280;25478;42.626;23.320;2022-12-18T14:30:51;94370.22;;;3.07;80.81
39789;BME280;25478;42.626;23.320;2022-12-18T14:33:25;94389.75;;;3.19;81.38
39789;BME280;25478;42.626;23.320;2022-12-18T14:36:03;94371.47;;;3.10;81.06
39789;BME280;25478;42.626;23.320;2022-12-18T14:38:33;94383.97;;;3.22;80.65
39789;BME280;25478;42.626;23.320;2022-12-18T14:41:13;94385.59;;;3.18;80.56
39789;BME280;25478;42.626;23.320;2022-12-18T14:43:41;94379.34;;;3.19;80.94
39789;BME280;25478;42.626;23.320;2022-12-18T14:46:27;94385.81;;;3.21;80.50
39789;BME280;25478;42.626;23.320;2022-12-18T14:48:54;94385.22;;;3.24;80.82
39789;BME280;25478;42.626;23.320;2022-12-18T14:51:22;94393.78;;;3.25;80.61
39789;BME280;25478;42.626;23.320;2022-12-18T14:53:53;94383.97;;;3.22;80.08
39789;BME280;25478;42.626;23.320;2022-12-18T14:58:51;94399.91;;;3.06;79.10